UAL1360 KIAH-KOKC
Flight info
| Callsign | UAL1360 |
|---|---|
| Flight time | 1h 7m |
| Altitude | 36000 |
| Route | STYCK8 DOLEY ZEMMA TSDEL3 |
| Aircraft | A320/M-SDE3FGHIRWY/LB1 |
Departure
| Time | 2026-04-26 13:43 |
|---|---|
| Airport | George Bush Intercontinental Airport (KIAH) |
Arrival
| Time | 2026-04-26 14:51 |
|---|---|
| Airport | OKC Will Rogers World Airport (KOKC) |
| Time | Latitude | Longitude | Altitude | Speed | Heading |
|---|---|---|---|---|---|
| 2026-04-26 13:28 | 29.98394 | -95.33878 | 107 ft | 0 kts | 36° |
| 2026-04-26 13:35 | 29.98389 | -95.33882 | 107 ft | 2 kts | 36° |
| 2026-04-26 13:35 | 29.98373 | -95.33895 | 106 ft | 3 kts | 36° |
| 2026-04-26 13:35 | 29.98358 | -95.33908 | 105 ft | 3 kts | 35° |
| 2026-04-26 13:35 | 29.98342 | -95.33917 | 106 ft | 3 kts | 359° |
| 2026-04-26 13:36 | 29.98326 | -95.33912 | 105 ft | 3 kts | 313° |
| 2026-04-26 13:36 | 29.98317 | -95.33896 | 106 ft | 2 kts | 274° |
| 2026-04-26 13:36 | 29.98317 | -95.33883 | 106 ft | 3 kts | 270° |
| 2026-04-26 13:36 | 29.98317 | -95.33867 | 106 ft | 1 kts | 270° |
| 2026-04-26 13:39 | 29.98316 | -95.33884 | 107 ft | 5 kts | 267° |
| 2026-04-26 13:39 | 29.98316 | -95.33951 | 107 ft | 14 kts | 277° |
| 2026-04-26 13:39 | 29.98357 | -95.34072 | 107 ft | 18 kts | 298° |
| 2026-04-26 13:40 | 29.98376 | -95.34223 | 107 ft | 24 kts | 268° |
| 2026-04-26 13:40 | 29.98377 | -95.34426 | 107 ft | 27 kts | 270° |
| 2026-04-26 13:40 | 29.98376 | -95.34651 | 107 ft | 29 kts | 269° |
| 2026-04-26 13:40 | 29.98374 | -95.34893 | 107 ft | 31 kts | 269° |
| 2026-04-26 13:41 | 29.98370 | -95.35107 | 107 ft | 20 kts | 269° |
| 2026-04-26 13:41 | 29.98376 | -95.35266 | 107 ft | 20 kts | 253° |
| 2026-04-26 13:41 | 29.98432 | -95.35351 | 105 ft | 14 kts | 330° |
| 2026-04-26 13:41 | 29.98524 | -95.35410 | 106 ft | 16 kts | 332° |
| 2026-04-26 13:42 | 29.98631 | -95.35476 | 106 ft | 19 kts | 332° |
| 2026-04-26 13:42 | 29.98752 | -95.35547 | 107 ft | 21 kts | 331° |
| 2026-04-26 13:42 | 29.98744 | -95.35677 | 107 ft | 15 kts | 240° |
| 2026-04-26 13:42 | 29.98664 | -95.35715 | 108 ft | 17 kts | 148° |
| 2026-04-26 13:43 | 29.98402 | -95.35550 | 106 ft | 77 kts | 152° |
| 2026-04-26 13:43 | 29.97740 | -95.35144 | 109 ft | 134 kts | 152° |
| 2026-04-26 13:43 | 29.96809 | -95.34561 | 247 ft | 163 kts | 150° |
| 2026-04-26 13:43 | 29.95877 | -95.33933 | 1032 ft | 152 kts | 148° |
| 2026-04-26 13:44 | 29.95229 | -95.32972 | 1576 ft | 162 kts | 107° |
| 2026-04-26 13:44 | 29.95356 | -95.31633 | 1979 ft | 184 kts | 68° |
| 2026-04-26 13:44 | 29.96298 | -95.30491 | 2256 ft | 213 kts | 30° |
| 2026-04-26 13:44 | 29.97796 | -95.30082 | 2574 ft | 235 kts | 357° |
| 2026-04-26 13:45 | 29.99500 | -95.30256 | 2907 ft | 258 kts | 352° |
| 2026-04-26 13:45 | 30.01335 | -95.30662 | 3362 ft | 277 kts | 335° |
| 2026-04-26 13:45 | 30.03029 | -95.31776 | 4146 ft | 282 kts | 323° |
| 2026-04-26 13:45 | 30.04683 | -95.33022 | 5052 ft | 286 kts | 323° |
| 2026-04-26 13:46 | 30.06320 | -95.34268 | 5996 ft | 284 kts | 323° |
| 2026-04-26 13:46 | 30.07958 | -95.35521 | 6908 ft | 282 kts | 323° |
| 2026-04-26 13:46 | 30.09593 | -95.36774 | 7763 ft | 282 kts | 323° |
| 2026-04-26 13:46 | 30.11232 | -95.38028 | 8580 ft | 284 kts | 324° |
| 2026-04-26 13:47 | 30.12887 | -95.39293 | 9405 ft | 286 kts | 324° |
| 2026-04-26 13:47 | 30.14557 | -95.40570 | 9832 ft | 289 kts | 324° |
| 2026-04-26 13:47 | 30.16234 | -95.41850 | 9957 ft | 289 kts | 324° |
| 2026-04-26 13:47 | 30.17993 | -95.43193 | 10101 ft | 315 kts | 324° |
| 2026-04-26 13:48 | 30.19883 | -95.44640 | 10445 ft | 332 kts | 324° |
| 2026-04-26 13:48 | 30.21823 | -95.46128 | 11082 ft | 337 kts | 324° |
| 2026-04-26 13:48 | 30.23792 | -95.47635 | 11810 ft | 341 kts | 325° |
| 2026-04-26 13:48 | 30.25782 | -95.49153 | 12503 ft | 344 kts | 325° |
| 2026-04-26 13:49 | 30.27817 | -95.50642 | 13193 ft | 349 kts | 330° |
| 2026-04-26 13:49 | 30.30005 | -95.51891 | 13919 ft | 351 kts | 332° |
| 2026-04-26 13:49 | 30.32204 | -95.53130 | 14598 ft | 352 kts | 332° |
| 2026-04-26 13:49 | 30.34412 | -95.54377 | 15253 ft | 354 kts | 332° |
| 2026-04-26 13:50 | 30.36637 | -95.55635 | 15890 ft | 356 kts | 331° |
| 2026-04-26 13:50 | 30.38872 | -95.56900 | 16523 ft | 359 kts | 331° |
| 2026-04-26 13:50 | 30.41092 | -95.58157 | 17167 ft | 361 kts | 330° |
| 2026-04-26 13:50 | 30.43359 | -95.59440 | 17816 ft | 363 kts | 330° |
| 2026-04-26 13:51 | 30.45643 | -95.60732 | 18446 ft | 366 kts | 330° |
| 2026-04-26 13:51 | 30.47938 | -95.62030 | 19033 ft | 368 kts | 330° |
| 2026-04-26 13:51 | 30.50247 | -95.63335 | 19609 ft | 371 kts | 330° |
| 2026-04-26 13:51 | 30.52574 | -95.64652 | 20178 ft | 373 kts | 330° |
| 2026-04-26 13:52 | 30.54917 | -95.65970 | 20783 ft | 376 kts | 330° |
| 2026-04-26 13:52 | 30.57290 | -95.67260 | 21369 ft | 378 kts | 331° |
| 2026-04-26 13:52 | 30.58879 | -95.68106 | 21745 ft | 380 kts | 331° |
| 2026-04-26 13:52 | 30.61296 | -95.69380 | 22316 ft | 383 kts | 332° |
| 2026-04-26 13:53 | 30.63733 | -95.70662 | 22884 ft | 385 kts | 332° |
| 2026-04-26 13:53 | 30.66187 | -95.71958 | 23404 ft | 388 kts | 331° |
| 2026-04-26 13:53 | 30.68653 | -95.73267 | 23839 ft | 391 kts | 331° |
| 2026-04-26 13:53 | 30.71939 | -95.75021 | 24426 ft | 393 kts | 331° |
| 2026-04-26 13:54 | 30.73619 | -95.75921 | 24730 ft | 394 kts | 330° |
| 2026-04-26 13:54 | 30.76114 | -95.77262 | 25156 ft | 396 kts | 330° |
| 2026-04-26 13:54 | 30.78623 | -95.78613 | 25588 ft | 398 kts | 330° |
| 2026-04-26 13:55 | 30.83674 | -95.81328 | 26410 ft | 402 kts | 330° |
| 2026-04-26 13:55 | 30.85359 | -95.82233 | 26664 ft | 402 kts | 330° |
| 2026-04-26 13:55 | 30.91307 | -95.85427 | 27546 ft | 407 kts | 330° |
| 2026-04-26 13:56 | 30.93881 | -95.86810 | 27948 ft | 408 kts | 330° |
| 2026-04-26 13:56 | 30.96469 | -95.88201 | 28363 ft | 410 kts | 330° |
| 2026-04-26 13:56 | 30.99067 | -95.89597 | 28752 ft | 412 kts | 330° |
| 2026-04-26 13:56 | 31.01675 | -95.90998 | 29140 ft | 414 kts | 329° |
| 2026-04-26 13:57 | 31.04299 | -95.92410 | 29522 ft | 416 kts | 329° |
| 2026-04-26 13:57 | 31.06931 | -95.93831 | 29864 ft | 418 kts | 329° |
| 2026-04-26 13:57 | 31.09574 | -95.95261 | 30178 ft | 419 kts | 329° |
| 2026-04-26 13:57 | 31.12233 | -95.96680 | 30502 ft | 423 kts | 332° |
| 2026-04-26 13:58 | 31.15029 | -95.97819 | 30874 ft | 426 kts | 335° |
| 2026-04-26 13:58 | 31.17838 | -95.98902 | 31327 ft | 424 kts | 335° |
| 2026-04-26 13:58 | 31.20634 | -95.99979 | 31759 ft | 423 kts | 335° |
| 2026-04-26 13:58 | 31.23425 | -96.01058 | 32197 ft | 421 kts | 334° |
| 2026-04-26 13:59 | 31.26203 | -96.02134 | 32632 ft | 420 kts | 334° |
| 2026-04-26 13:59 | 31.28973 | -96.03205 | 33097 ft | 419 kts | 334° |
| 2026-04-26 13:59 | 31.31700 | -96.04261 | 33550 ft | 417 kts | 334° |
| 2026-04-26 14:00 | 31.39918 | -96.07459 | 34833 ft | 412 kts | 333° |
| 2026-04-26 14:00 | 31.42640 | -96.08515 | 35211 ft | 410 kts | 333° |
| 2026-04-26 14:00 | 31.44431 | -96.09212 | 35412 ft | 409 kts | 333° |
| 2026-04-26 14:01 | 31.48040 | -96.10621 | 35774 ft | 409 kts | 333° |
| 2026-04-26 14:01 | 31.53440 | -96.12729 | 35846 ft | 408 kts | 333° |
| 2026-04-26 14:02 | 31.58831 | -96.14830 | 35846 ft | 408 kts | 333° |
| 2026-04-26 14:02 | 31.64176 | -96.16922 | 35876 ft | 408 kts | 333° |
| 2026-04-26 14:03 | 31.69568 | -96.19035 | 35878 ft | 409 kts | 333° |
| 2026-04-26 14:03 | 31.74970 | -96.21156 | 35893 ft | 409 kts | 333° |
| 2026-04-26 14:04 | 31.80382 | -96.23276 | 35895 ft | 409 kts | 333° |
| 2026-04-26 14:04 | 31.85789 | -96.25399 | 35903 ft | 409 kts | 333° |
| 2026-04-26 14:05 | 31.91164 | -96.27517 | 35920 ft | 409 kts | 333° |
| 2026-04-26 14:05 | 31.96565 | -96.29646 | 35951 ft | 409 kts | 333° |
| 2026-04-26 14:06 | 32.01971 | -96.31773 | 35954 ft | 410 kts | 333° |
| 2026-04-26 14:06 | 32.07386 | -96.33905 | 35951 ft | 409 kts | 333° |
| 2026-04-26 14:07 | 32.12792 | -96.36046 | 35947 ft | 409 kts | 333° |
| 2026-04-26 14:07 | 32.18201 | -96.38187 | 35934 ft | 410 kts | 334° |
| 2026-04-26 14:08 | 32.23815 | -96.39793 | 35929 ft | 416 kts | 339° |
| 2026-04-26 14:08 | 32.29427 | -96.41295 | 35907 ft | 416 kts | 339° |
| 2026-04-26 14:09 | 32.35073 | -96.42824 | 35881 ft | 416 kts | 339° |
| 2026-04-26 14:09 | 32.40724 | -96.44350 | 35885 ft | 417 kts | 339° |
| 2026-04-26 14:10 | 32.46389 | -96.45875 | 35895 ft | 417 kts | 339° |
| 2026-04-26 14:10 | 32.52045 | -96.47411 | 35909 ft | 417 kts | 338° |
| 2026-04-26 14:11 | 32.60528 | -96.49710 | 35927 ft | 419 kts | 339° |
| 2026-04-26 14:11 | 32.66219 | -96.51247 | 35939 ft | 419 kts | 339° |
| 2026-04-26 14:12 | 32.71899 | -96.52790 | 35940 ft | 419 kts | 339° |
| 2026-04-26 14:12 | 32.77597 | -96.54348 | 35952 ft | 419 kts | 339° |
| 2026-04-26 14:13 | 32.86134 | -96.56681 | 35891 ft | 420 kts | 339° |
| 2026-04-26 14:14 | 32.91827 | -96.58233 | 35899 ft | 420 kts | 339° |
| 2026-04-26 14:14 | 32.97529 | -96.59795 | 35900 ft | 420 kts | 339° |
| 2026-04-26 14:15 | 33.03194 | -96.61348 | 35913 ft | 420 kts | 339° |
| 2026-04-26 14:15 | 33.08895 | -96.62914 | 35906 ft | 420 kts | 339° |
| 2026-04-26 14:16 | 33.14605 | -96.64485 | 35907 ft | 421 kts | 339° |
| 2026-04-26 14:16 | 33.20310 | -96.66053 | 35905 ft | 421 kts | 339° |
| 2026-04-26 14:17 | 33.26020 | -96.67625 | 35900 ft | 421 kts | 339° |
| 2026-04-26 14:17 | 33.31731 | -96.69207 | 35895 ft | 421 kts | 339° |
| 2026-04-26 14:18 | 33.37445 | -96.70769 | 35884 ft | 421 kts | 339° |
| 2026-04-26 14:18 | 33.43120 | -96.72336 | 35876 ft | 421 kts | 339° |
| 2026-04-26 14:19 | 33.48837 | -96.73923 | 35879 ft | 421 kts | 339° |
| 2026-04-26 14:19 | 33.54553 | -96.75507 | 35904 ft | 422 kts | 339° |
| 2026-04-26 14:20 | 33.60273 | -96.77095 | 35898 ft | 422 kts | 339° |
| 2026-04-26 14:20 | 33.66000 | -96.78692 | 35897 ft | 422 kts | 339° |
| 2026-04-26 14:21 | 33.71735 | -96.80289 | 35899 ft | 423 kts | 339° |
| 2026-04-26 14:21 | 33.77471 | -96.81884 | 35895 ft | 423 kts | 339° |
| 2026-04-26 14:22 | 33.83207 | -96.83490 | 35869 ft | 423 kts | 339° |
| 2026-04-26 14:22 | 33.88948 | -96.85102 | 35694 ft | 426 kts | 339° |
| 2026-04-26 14:22 | 33.91814 | -96.85906 | 34713 ft | 428 kts | 339° |
| 2026-04-26 14:23 | 33.94684 | -96.86703 | 33952 ft | 419 kts | 339° |
| 2026-04-26 14:23 | 33.97509 | -96.87483 | 33046 ft | 414 kts | 339° |
| 2026-04-26 14:23 | 34.00288 | -96.88252 | 32282 ft | 405 kts | 338° |
| 2026-04-26 14:23 | 34.03004 | -96.89002 | 31907 ft | 401 kts | 338° |
| 2026-04-26 14:24 | 34.05720 | -96.89766 | 31355 ft | 400 kts | 338° |
| 2026-04-26 14:24 | 34.08424 | -96.90527 | 30859 ft | 398 kts | 338° |
| 2026-04-26 14:24 | 34.11119 | -96.91286 | 30354 ft | 397 kts | 338° |
| 2026-04-26 14:24 | 34.13809 | -96.92043 | 29836 ft | 396 kts | 338° |
| 2026-04-26 14:25 | 34.16483 | -96.92798 | 29283 ft | 393 kts | 338° |
| 2026-04-26 14:25 | 34.19139 | -96.93548 | 28779 ft | 391 kts | 338° |
| 2026-04-26 14:25 | 34.21777 | -96.94294 | 28284 ft | 388 kts | 338° |
| 2026-04-26 14:25 | 34.24400 | -96.95035 | 27780 ft | 386 kts | 338° |
| 2026-04-26 14:26 | 34.27014 | -96.95775 | 27295 ft | 385 kts | 338° |
| 2026-04-26 14:26 | 34.29624 | -96.96519 | 26803 ft | 385 kts | 338° |
| 2026-04-26 14:26 | 34.32205 | -96.97255 | 26310 ft | 385 kts | 338° |
| 2026-04-26 14:26 | 34.34818 | -96.97994 | 25827 ft | 385 kts | 339° |
| 2026-04-26 14:27 | 34.37422 | -96.98772 | 25348 ft | 382 kts | 334° |
| 2026-04-26 14:27 | 34.39860 | -96.99943 | 24877 ft | 373 kts | 326° |
| 2026-04-26 14:27 | 34.42155 | -97.01404 | 24417 ft | 372 kts | 325° |
| 2026-04-26 14:27 | 34.44446 | -97.02865 | 23973 ft | 372 kts | 325° |
| 2026-04-26 14:28 | 34.46736 | -97.04323 | 23536 ft | 371 kts | 325° |
| 2026-04-26 14:28 | 34.49018 | -97.05775 | 23062 ft | 370 kts | 325° |
| 2026-04-26 14:28 | 34.51287 | -97.07223 | 22631 ft | 367 kts | 325° |
| 2026-04-26 14:28 | 34.53536 | -97.08659 | 22218 ft | 363 kts | 326° |
| 2026-04-26 14:29 | 34.55764 | -97.10085 | 21776 ft | 361 kts | 326° |
| 2026-04-26 14:29 | 34.57948 | -97.11481 | 21328 ft | 358 kts | 326° |
| 2026-04-26 14:29 | 34.60142 | -97.12881 | 20891 ft | 355 kts | 326° |
| 2026-04-26 14:29 | 34.62325 | -97.14277 | 20443 ft | 353 kts | 326° |
| 2026-04-26 14:30 | 34.64492 | -97.15669 | 19979 ft | 351 kts | 326° |
| 2026-04-26 14:30 | 34.66643 | -97.17050 | 19513 ft | 349 kts | 326° |
| 2026-04-26 14:30 | 34.68789 | -97.18430 | 19040 ft | 348 kts | 326° |
| 2026-04-26 14:30 | 34.70923 | -97.19800 | 18566 ft | 347 kts | 326° |
| 2026-04-26 14:31 | 34.73054 | -97.21168 | 18078 ft | 346 kts | 326° |
| 2026-04-26 14:31 | 34.75175 | -97.22537 | 17568 ft | 344 kts | 325° |
| 2026-04-26 14:31 | 34.77265 | -97.23915 | 17146 ft | 339 kts | 323° |
| 2026-04-26 14:31 | 34.79315 | -97.25307 | 16678 ft | 337 kts | 322° |
| 2026-04-26 14:32 | 34.81336 | -97.26786 | 16094 ft | 340 kts | 322° |
| 2026-04-26 14:32 | 34.83352 | -97.28308 | 15483 ft | 342 kts | 322° |
| 2026-04-26 14:32 | 34.85354 | -97.29825 | 15209 ft | 333 kts | 323° |
| 2026-04-26 14:32 | 34.87291 | -97.31280 | 15076 ft | 321 kts | 323° |
| 2026-04-26 14:33 | 34.89166 | -97.32679 | 14917 ft | 311 kts | 323° |
| 2026-04-26 14:33 | 34.90969 | -97.34032 | 14653 ft | 306 kts | 323° |
| 2026-04-26 14:33 | 34.92772 | -97.35405 | 14307 ft | 305 kts | 323° |
| 2026-04-26 14:33 | 34.94567 | -97.36780 | 13905 ft | 305 kts | 323° |
| 2026-04-26 14:34 | 34.96367 | -97.38157 | 13481 ft | 306 kts | 323° |
| 2026-04-26 14:34 | 34.98170 | -97.39531 | 13098 ft | 304 kts | 323° |
| 2026-04-26 14:34 | 34.99962 | -97.40897 | 12726 ft | 302 kts | 323° |
| 2026-04-26 14:34 | 35.01748 | -97.42260 | 12308 ft | 302 kts | 323° |
| 2026-04-26 14:35 | 35.03530 | -97.43617 | 11898 ft | 302 kts | 324° |
| 2026-04-26 14:35 | 35.05303 | -97.44971 | 11515 ft | 301 kts | 324° |
| 2026-04-26 14:35 | 35.07154 | -97.46153 | 11204 ft | 301 kts | 335° |
| 2026-04-26 14:35 | 35.09208 | -97.46767 | 10823 ft | 306 kts | 351° |
| 2026-04-26 14:36 | 35.11326 | -97.46909 | 10483 ft | 304 kts | 353° |
| 2026-04-26 14:36 | 35.13438 | -97.47037 | 10128 ft | 303 kts | 354° |
| 2026-04-26 14:36 | 35.15542 | -97.47175 | 9788 ft | 302 kts | 354° |
| 2026-04-26 14:36 | 35.17633 | -97.47316 | 9367 ft | 299 kts | 354° |
| 2026-04-26 14:37 | 35.19704 | -97.47453 | 8714 ft | 297 kts | 353° |
| 2026-04-26 14:37 | 35.21758 | -97.47585 | 8298 ft | 295 kts | 354° |
| 2026-04-26 14:37 | 35.23806 | -97.47717 | 7908 ft | 295 kts | 354° |
| 2026-04-26 14:37 | 35.25822 | -97.47846 | 7639 ft | 290 kts | 356° |
| 2026-04-26 14:38 | 35.27807 | -97.47975 | 7527 ft | 281 kts | 357° |
| 2026-04-26 14:38 | 35.29728 | -97.48102 | 7402 ft | 272 kts | 357° |
| 2026-04-26 14:38 | 35.31601 | -97.48226 | 7207 ft | 268 kts | 357° |
| 2026-04-26 14:38 | 35.32857 | -97.48308 | 7001 ft | 268 kts | 358° |
| 2026-04-26 14:39 | 35.34694 | -97.48425 | 6726 ft | 267 kts | 358° |
| 2026-04-26 14:39 | 35.36554 | -97.48543 | 6397 ft | 269 kts | 358° |
| 2026-04-26 14:39 | 35.38427 | -97.48662 | 6072 ft | 270 kts | 358° |
| 2026-04-26 14:39 | 35.40269 | -97.48733 | 5996 ft | 258 kts | 0° |
| 2026-04-26 14:40 | 35.42011 | -97.48743 | 6004 ft | 243 kts | 1° |
| 2026-04-26 14:40 | 35.43692 | -97.48740 | 6007 ft | 240 kts | 1° |
| 2026-04-26 14:40 | 35.45372 | -97.48742 | 6003 ft | 242 kts | 1° |
| 2026-04-26 14:40 | 35.47067 | -97.48754 | 5844 ft | 246 kts | 0° |
| 2026-04-26 14:41 | 35.48761 | -97.48781 | 5641 ft | 241 kts | 0° |
| 2026-04-26 14:41 | 35.50439 | -97.48813 | 5562 ft | 240 kts | 360° |
| 2026-04-26 14:41 | 35.52101 | -97.48848 | 5495 ft | 236 kts | 360° |
| 2026-04-26 14:41 | 35.53704 | -97.48884 | 5440 ft | 227 kts | 359° |
| 2026-04-26 14:42 | 35.55275 | -97.48919 | 5389 ft | 226 kts | 359° |
| 2026-04-26 14:42 | 35.56844 | -97.48954 | 5329 ft | 225 kts | 360° |
| 2026-04-26 14:42 | 35.58411 | -97.48991 | 5288 ft | 224 kts | 360° |
| 2026-04-26 14:42 | 35.59971 | -97.49027 | 5231 ft | 225 kts | 360° |
| 2026-04-26 14:43 | 35.61500 | -97.49201 | 5193 ft | 223 kts | 339° |
| 2026-04-26 14:43 | 35.62753 | -97.50234 | 5117 ft | 217 kts | 302° |
| 2026-04-26 14:43 | 35.63288 | -97.51899 | 5022 ft | 207 kts | 268° |
| 2026-04-26 14:43 | 35.63394 | -97.53663 | 4908 ft | 208 kts | 273° |
| 2026-04-26 14:44 | 35.63644 | -97.55429 | 4792 ft | 211 kts | 275° |
| 2026-04-26 14:44 | 35.63941 | -97.57199 | 4664 ft | 211 kts | 276° |
| 2026-04-26 14:44 | 35.64086 | -97.58952 | 4540 ft | 200 kts | 250° |
| 2026-04-26 14:44 | 35.63356 | -97.60263 | 4422 ft | 185 kts | 204° |
| 2026-04-26 14:45 | 35.62135 | -97.60394 | 4294 ft | 182 kts | 157° |
| 2026-04-26 14:45 | 35.61434 | -97.59871 | 4252 ft | 173 kts | 146° |
| 2026-04-26 14:45 | 35.60036 | -97.59169 | 4097 ft | 157 kts | 171° |
| 2026-04-26 14:45 | 35.58993 | -97.59022 | 4015 ft | 145 kts | 176° |
| 2026-04-26 14:46 | 35.58008 | -97.58962 | 3999 ft | 140 kts | 177° |
| 2026-04-26 14:46 | 35.57048 | -97.58934 | 3998 ft | 139 kts | 178° |
| 2026-04-26 14:46 | 35.56082 | -97.58920 | 4003 ft | 138 kts | 179° |
| 2026-04-26 14:46 | 35.55121 | -97.58913 | 3967 ft | 138 kts | 179° |
| 2026-04-26 14:47 | 35.54098 | -97.58909 | 3868 ft | 152 kts | 178° |
| 2026-04-26 14:47 | 35.53020 | -97.58906 | 3697 ft | 157 kts | 179° |
| 2026-04-26 14:47 | 35.51927 | -97.58904 | 3502 ft | 157 kts | 179° |
| 2026-04-26 14:47 | 35.50844 | -97.58904 | 3305 ft | 151 kts | 176° |
| 2026-04-26 14:48 | 35.49811 | -97.58903 | 3109 ft | 145 kts | 176° |
| 2026-04-26 14:48 | 35.48818 | -97.58903 | 2947 ft | 141 kts | 177° |
| 2026-04-26 14:48 | 35.47843 | -97.58902 | 2752 ft | 139 kts | 178° |
| 2026-04-26 14:48 | 35.46873 | -97.58901 | 2567 ft | 140 kts | 177° |
| 2026-04-26 14:49 | 35.45933 | -97.58907 | 2345 ft | 132 kts | 178° |
| 2026-04-26 14:49 | 35.45027 | -97.58915 | 2197 ft | 127 kts | 175° |
| 2026-04-26 14:49 | 35.44127 | -97.58902 | 2026 ft | 131 kts | 177° |
| 2026-04-26 14:49 | 35.43226 | -97.58912 | 1903 ft | 128 kts | 175° |
| 2026-04-26 14:50 | 35.42314 | -97.58909 | 1722 ft | 132 kts | 176° |
| 2026-04-26 14:50 | 35.41394 | -97.58898 | 1520 ft | 132 kts | 176° |
| 2026-04-26 14:50 | 35.40469 | -97.58898 | 1339 ft | 134 kts | 176° |
| 2026-04-26 14:50 | 35.39642 | -97.58892 | 1291 ft | 98 kts | 180° |
| 2026-04-26 14:51 | 35.39131 | -97.58894 | 1294 ft | 49 kts | 180° |
| 2026-04-26 14:51 | 35.38914 | -97.58896 | 1294 ft | 25 kts | 179° |
| 2026-04-26 14:51 | 35.38798 | -97.59006 | 1291 ft | 25 kts | 278° |
| 2026-04-26 14:51 | 35.38937 | -97.59060 | 1294 ft | 16 kts | 10° |
| 2026-04-26 14:52 | 35.38994 | -97.59055 | 1293 ft | 12 kts | 360° |
| 2026-04-26 14:52 | 35.39088 | -97.59060 | 1292 ft | 15 kts | 356° |
| 2026-04-26 14:52 | 35.39199 | -97.59079 | 1291 ft | 16 kts | 311° |
| 2026-04-26 14:52 | 35.39215 | -97.59213 | 1294 ft | 16 kts | 269° |
| 2026-04-26 14:53 | 35.39214 | -97.59357 | 1295 ft | 18 kts | 269° |
| 2026-04-26 14:53 | 35.39215 | -97.59516 | 1294 ft | 20 kts | 270° |
| 2026-04-26 14:53 | 35.39215 | -97.59704 | 1293 ft | 24 kts | 270° |
| 2026-04-26 14:53 | 35.39252 | -97.59903 | 1292 ft | 26 kts | 310° |
| 2026-04-26 14:54 | 35.39379 | -97.60053 | 1293 ft | 21 kts | 316° |
| 2026-04-26 14:54 | 35.39488 | -97.60181 | 1290 ft | 16 kts | 316° |
| 2026-04-26 14:54 | 35.39574 | -97.60159 | 1292 ft | 16 kts | 63° |
| 2026-04-26 14:54 | 35.39619 | -97.60036 | 1296 ft | 15 kts | 66° |
| 2026-04-26 14:55 | 35.39637 | -97.59906 | 1297 ft | 11 kts | 91° |
| 2026-04-26 14:55 | 35.39605 | -97.59858 | 1297 ft | 8 kts | 171° |
| 2026-04-26 14:55 | 35.39574 | -97.59859 | 1297 ft | 1 kts | 180° |
| 2026-04-26 14:55 | 35.39565 | -97.59859 | 1297 ft | 2 kts | 180° |
| 2026-04-26 14:56 | 35.39562 | -97.59859 | 1297 ft | 0 kts | 180° |